Time;durP1;ratioP1;P1;durP2;ratioP2;P2;SDS_P1;SDS_P2;PMS_P1;PMS_P2;Temp;Humidity;BMP_temperature;BMP_pressure;BME280_temperature;BME280_humidity;BME280_pressure;Samples;Min_cycle;Max_cycle;Signal;HPM_P1;HPM_P2
2022/11/06 00:02:46;;;;;;;5.70;2.40;;;;;;;-145.48;100.00;64539.38;6027177;29;20052;-94
2022/11/06 00:09:12;;;;;;;3.17;2.17;;;;;;;-145.48;100.00;64539.38;6034781;29;20044;-94
2022/11/06 00:12:14;;;;;;;4.07;2.47;;;;;;;-145.48;100.00;64539.38;6034206;29;20060;-94
2022/11/06 00:15:16;;;;;;;5.30;2.38;;;;;;;-145.48;100.00;64539.38;6047658;29;20103;-93
2022/11/06 00:18:18;;;;;;;4.10;2.60;;;;;;;-145.48;100.00;64539.38;6039236;29;20049;-94
2022/11/06 00:21:23;;;;;;;3.30;2.10;;;;;;;-145.48;100.00;64539.38;6038395;29;20395;-93
2022/11/06 00:24:25;;;;;;;4.18;2.50;;;;;;;-145.48;100.00;64539.38;6032767;29;20053;-94
2022/11/06 00:27:27;;;;;;;5.25;2.22;;;;;;;-145.48;100.00;64539.38;6037856;29;20064;-93
2022/11/06 00:30:29;;;;;;;3.55;2.53;;;;;;;-145.48;100.00;64539.38;6042121;29;20045;-94
2022/11/06 00:33:31;;;;;;;3.40;2.80;;;;;;;-145.48;100.00;64539.38;6044165;29;20485;-94
2022/11/06 00:36:33;;;;;;;5.75;2.65;;;;;;;-145.48;100.00;64539.38;6043191;29;20507;-94
2022/11/06 00:39:35;;;;;;;3.35;2.53;;;;;;;-145.48;100.00;64539.38;6033878;29;20049;-94
2022/11/06 00:42:37;;;;;;;6.07;2.65;;;;;;;-145.48;100.00;64539.38;6036334;29;20044;-93
2022/11/06 00:45:39;;;;;;;2.88;2.05;;;;;;;-145.48;100.00;64539.38;6031289;29;20504;-94
2022/11/06 00:48:41;;;;;;;4.13;2.40;;;;;;;-145.48;100.00;64539.38;6045307;29;20081;-94
2022/11/06 00:51:43;;;;;;;4.13;2.40;;;;;;;-145.48;100.00;64539.38;6026386;29;20044;-94
2022/11/06 00:54:45;;;;;;;4.28;2.72;;;;;;;-145.48;100.00;64539.38;6028160;29;20061;-94
2022/11/06 00:57:47;;;;;;;5.45;2.90;;;;;;;-145.48;100.00;64539.38;6035194;29;20048;-94
2022/11/06 01:00:49;;;;;;;4.68;2.60;;;;;;;-145.48;100.00;64539.38;6037783;29;20507;-93
2022/11/06 01:03:55;;;;;;;5.63;2.70;;;;;;;-145.48;100.00;64539.38;6029693;29;20300;-93
2022/11/06 01:06:57;;;;;;;5.13;2.72;;;;;;;-145.48;100.00;64539.38;6020866;29;20621;-94
2022/11/06 01:09:59;;;;;;;3.53;2.47;;;;;;;-145.48;100.00;64539.38;6044943;29;20040;-94
2022/11/06 01:13:01;;;;;;;5.22;2.60;;;;;;;-145.48;100.00;64539.38;6030784;29;20048;-94
2022/11/06 01:16:10;;;;;;;6.75;3.15;;;;;;;-145.48;100.00;64539.38;6039985;29;20041;-94
2022/11/06 01:19:14;;;;;;;5.68;3.05;;;;;;;-145.48;100.00;64539.38;6033952;29;20041;-93
2022/11/06 01:22:17;;;;;;;5.70;3.25;;;;;;;-145.48;100.00;64539.38;6035063;29;20430;-94
2022/11/06 01:25:18;;;;;;;3.40;2.95;;;;;;;-145.48;100.00;64539.38;6026688;29;20389;-94
2022/11/06 01:28:21;;;;;;;5.45;3.45;;;;;;;-145.48;100.00;64539.38;6049156;29;20053;-93
2022/11/06 01:31:28;;;;;;;4.50;2.88;;;;;;;-145.48;100.00;64539.38;6051749;29;20041;-94
2022/11/06 01:34:30;;;;;;;5.15;3.38;;;;;;;-145.48;100.00;64539.38;6041813;29;20051;-94
2022/11/06 01:37:31;;;;;;;5.15;3.40;;;;;;;-145.48;100.00;64539.38;6031806;29;20539;-94
2022/11/06 01:40:40;;;;;;;6.22;3.10;;;;;;;-145.48;100.00;64539.38;6029058;29;20034;-94
2022/11/06 01:43:53;;;;;;;5.80;2.88;;;;;;;-145.48;100.00;64539.38;6043405;29;20073;-93
2022/11/06 01:46:55;;;;;;;5.63;2.83;;;;;;;-145.48;100.00;64539.38;6009325;29;20046;-93
2022/11/06 01:50:01;;;;;;;3.78;2.63;;;;;;;-145.48;100.00;64539.38;6036052;29;20463;-93
2022/11/06 01:53:04;;;;;;;5.88;3.20;;;;;;;-145.48;100.00;64539.38;6059544;29;20036;-94
2022/11/06 01:56:09;;;;;;;7.18;3.28;;;;;;;-145.48;100.00;64539.38;6044862;29;20060;-94
2022/11/06 01:59:14;;;;;;;6.03;3.30;;;;;;;-145.48;100.00;64539.38;6050311;29;20633;-93
2022/11/06 02:02:16;;;;;;;7.22;3.22;;;;;;;-145.48;100.00;64539.38;6054791;29;20060;-93
2022/11/06 02:05:18;;;;;;;5.75;3.05;;;;;;;-145.48;100.00;64539.38;6045291;29;20430;-93
2022/11/06 02:08:22;;;;;;;5.70;3.47;;;;;;;-145.48;100.00;64539.38;6041656;29;20542;-94
2022/11/06 02:11:24;;;;;;;4.22;3.25;;;;;;;-145.48;100.00;64539.38;6056253;29;20521;-93
2022/11/06 02:14:57;;;;;;;6.70;3.25;;;;;;;-145.48;100.00;64539.38;6045861;29;20049;-93
2022/11/06 02:18:23;;;;;;;4.90;3.10;;;;;;;-145.48;100.00;64539.38;6043213;29;20518;-93
2022/11/06 02:21:45;;;;;;;4.90;3.17;;;;;;;-145.48;100.00;64539.38;6050093;29;20084;-93
2022/11/06 02:25:02;;;;;;;7.07;3.65;;;;;;;-145.48;100.00;64539.38;6053565;29;20508;-93
2022/11/06 02:28:30;;;;;;;7.07;3.38;;;;;;;-145.48;100.00;64539.38;6041714;29;20072;-94
2022/11/06 02:31:35;;;;;;;5.05;2.97;;;;;;;-145.48;100.00;64539.38;6046688;29;20045;-94
2022/11/06 02:34:40;;;;;;;4.57;3.00;;;;;;;-145.48;100.00;64539.38;6044918;29;20052;-93
2022/11/06 02:37:45;;;;;;;5.63;3.47;;;;;;;-145.48;100.00;64539.38;6039597;29;20393;-93
2022/11/06 02:40:55;;;;;;;5.20;3.40;;;;;;;-145.48;100.00;64539.38;6049113;29;20416;-94
2022/11/06 02:43:58;;;;;;;4.80;3.30;;;;;;;-145.48;100.00;64539.38;6047369;29;20475;-93
2022/11/06 02:47:04;;;;;;;5.78;3.78;;;;;;;-145.48;100.00;64539.38;6053173;29;20044;-94
2022/11/06 02:50:12;;;;;;;4.97;3.42;;;;;;;-145.48;100.00;64539.38;6067826;29;20490;-93
2022/11/06 02:53:17;;;;;;;6.00;3.25;;;;;;;-145.48;100.00;64539.38;6066965;29;20044;-94
2022/11/06 02:56:30;;;;;;;7.15;3.58;;;;;;;-145.48;100.00;64539.38;6047960;29;20529;-94
2022/11/06 02:59:37;;;;;;;5.50;3.40;;;;;;;-145.48;100.00;64539.38;6065821;29;20543;-94
2022/11/06 03:02:44;;;;;;;6.03;3.80;;;;;;;-145.48;100.00;64539.38;6045210;29;20131;-94
2022/11/06 03:05:53;;;;;;;7.22;3.80;;;;;;;-145.48;100.00;64539.38;6058549;29;20048;-94
2022/11/06 03:09:09;;;;;;;6.97;4.38;;;;;;;-145.48;100.00;64539.38;6042946;29;20412;-93
2022/11/06 03:12:29;;;;;;;6.25;3.65;;;;;;;-145.48;100.00;64539.38;6053179;29;20048;-93
2022/11/06 03:15:32;;;;;;;9.68;3.95;;;;;;;-145.48;100.00;64539.38;6042892;29;20113;-94
2022/11/06 03:19:22;;;;;;;7.25;3.70;;;;;;;-145.48;100.00;64539.38;6040774;29;20185;-93
2022/11/06 03:22:56;;;;;;;7.93;4.05;;;;;;;-145.48;100.00;64539.38;6019541;29;20140;-93
2022/11/06 03:26:22;;;;;;;4.35;3.40;;;;;;;-145.48;100.00;64539.38;6009100;29;20053;-93
2022/11/06 03:29:55;;;;;;;8.73;4.32;;;;;;;-145.48;100.00;64539.38;6024376;29;20154;-93
2022/11/06 03:33:14;;;;;;;8.15;4.13;;;;;;;-145.48;100.00;64539.38;6018037;29;20066;-93
2022/11/06 03:36:33;;;;;;;5.70;4.60;;;;;;;-145.48;100.00;64539.38;6020549;29;20167;-94
2022/11/06 03:39:41;;;;;;;5.93;4.45;;;;;;;-145.48;100.00;64539.38;6024688;29;20053;-94
2022/11/06 03:42:45;;;;;;;11.20;4.10;;;;;;;-145.48;100.00;64539.38;6031703;29;20056;-94
2022/11/06 03:45:51;;;;;;;5.78;3.55;;;;;;;-145.48;100.00;64539.38;6019900;29;20053;-94
2022/11/06 03:49:06;;;;;;;6.82;3.80;;;;;;;-145.48;100.00;64539.38;6025472;29;20041;-94
2022/11/06 03:52:32;;;;;;;7.15;3.72;;;;;;;-145.48;100.00;64539.38;6008778;29;20098;-94
2022/11/06 03:56:00;;;;;;;5.65;3.33;;;;;;;-145.48;100.00;64539.38;6030003;29;20245;-94
2022/11/06 03:59:05;;;;;;;6.97;3.38;;;;;;;-145.48;100.00;64539.38;6032073;29;20056;-94
2022/11/06 04:02:08;;;;;;;7.35;3.70;;;;;;;-145.48;100.00;64539.38;6065144;29;20184;-94
2022/11/06 04:05:19;;;;;;;8.18;3.72;;;;;;;-145.48;100.00;64539.38;6055538;29;20045;-93
2022/11/06 04:15:13;;;;;;;6.82;3.25;;;;;;;-145.48;100.00;64539.38;6047396;29;20047;-94
2022/11/06 04:18:21;;;;;;;7.85;3.58;;;;;;;-145.48;100.00;64539.38;6047582;29;20049;-93
2022/11/06 04:22:00;;;;;;;6.28;3.40;;;;;;;-145.48;100.00;64539.38;6065165;29;20452;-93
2022/11/06 04:29:25;;;;;;;5.63;3.63;;;;;;;-145.48;100.00;64539.38;6055831;29;20495;-94
2022/11/06 04:32:33;;;;;;;8.75;3.95;;;;;;;-145.48;100.00;64539.38;5977953;29;20062;-94
2022/11/06 04:35:56;;;;;;;6.22;3.47;;;;;;;-145.48;100.00;64539.38;5992463;29;20038;-93
2022/11/06 04:39:43;;;;;;;6.07;3.22;;;;;;;-145.48;100.00;64539.38;5990177;29;20198;-93
2022/11/06 04:43:02;;;;;;;3.53;3.00;;;;;;;-145.48;100.00;64539.38;5980695;29;20077;-94
2022/11/06 04:46:07;;;;;;;3.50;2.70;;;;;;;-145.48;100.00;64539.38;5986715;29;20188;-94
2022/11/06 04:49:11;;;;;;;7.60;3.05;;;;;;;-145.48;100.00;64539.38;5986672;29;20062;-94
2022/11/06 04:52:18;;;;;;;5.25;3.00;;;;;;;-145.48;100.00;64539.38;5995133;29;20054;-94
2022/11/06 04:55:21;;;;;;;7.72;3.05;;;;;;;-145.48;100.00;64539.38;5995886;29;20449;-94
2022/11/06 04:58:23;;;;;;;4.35;2.95;;;;;;;-145.48;100.00;64539.38;5987348;29;20538;-93
2022/11/06 05:01:25;;;;;;;5.38;3.10;;;;;;;-145.48;100.00;64539.38;5974178;29;20058;-94
2022/11/06 05:04:27;;;;;;;5.30;2.67;;;;;;;-145.48;100.00;64539.38;5992209;29;20058;-93
2022/11/06 05:07:29;;;;;;;3.40;2.78;;;;;;;-145.48;100.00;64539.38;5995768;29;20060;-94
2022/11/06 05:10:31;;;;;;;4.18;2.95;;;;;;;-145.48;100.00;64539.38;6032729;29;20068;-94
2022/11/06 05:13:33;;;;;;;3.40;2.40;;;;;;;-145.48;100.00;64539.38;6049434;29;20077;-94
2022/11/06 05:16:35;;;;;;;8.55;3.15;;;;;;;-145.48;100.00;64539.38;6045187;29;20434;-94
2022/11/06 05:19:36;;;;;;;5.05;2.83;;;;;;;-145.48;100.00;64539.38;6051173;29;20053;-94
2022/11/06 05:22:57;;;;;;;6.22;3.00;;;;;;;-145.48;100.00;64539.38;6042670;29;20274;-93
2022/11/06 05:25:59;;;;;;;6.17;2.97;;;;;;;-145.48;100.00;64539.38;6044641;29;20049;-93
2022/11/06 05:29:00;;;;;;;6.10;2.63;;;;;;;-145.48;100.00;64539.38;6052746;29;20576;-94
2022/11/06 05:32:02;;;;;;;6.00;3.30;;;;;;;-145.48;100.00;64539.38;6035202;29;20049;-93
2022/11/06 05:35:04;;;;;;;5.35;2.72;;;;;;;-145.48;100.00;64539.38;6048273;29;20770;-94
2022/11/06 05:38:06;;;;;;;5.78;3.17;;;;;;;-145.48;100.00;64539.38;6067849;29;20425;-93
2022/11/06 05:41:08;;;;;;;5.63;3.30;;;;;;;-145.48;100.00;64539.38;6050155;29;20056;-94
2022/11/06 05:44:10;;;;;;;6.25;3.50;;;;;;;-145.48;100.00;64539.38;6056035;29;20508;-94
2022/11/06 05:47:12;;;;;;;6.53;2.90;;;;;;;-145.48;100.00;64539.38;6044412;29;20056;-94
2022/11/06 05:50:14;;;;;;;3.85;3.17;;;;;;;-145.48;100.00;64539.38;6031077;29;20045;-93
2022/11/06 05:53:15;;;;;;;9.07;3.30;;;;;;;-145.48;100.00;64539.38;6025476;29;20148;-94
2022/11/06 05:56:17;;;;;;;7.50;3.28;;;;;;;-145.48;100.00;64539.38;6040456;29;20072;-93
2022/11/06 05:59:19;;;;;;;5.28;2.95;;;;;;;-145.48;100.00;64539.38;6038275;29;20333;-93
2022/11/06 06:02:21;;;;;;;5.60;2.78;;;;;;;-145.48;100.00;64539.38;6067522;29;20495;-93
2022/11/06 06:05:23;;;;;;;7.38;2.80;;;;;;;-145.48;100.00;64539.38;6043392;29;20418;-93
2022/11/06 06:08:25;;;;;;;5.97;2.90;;;;;;;-145.48;100.00;64539.38;6055371;29;20060;-94
2022/11/06 06:11:26;;;;;;;5.43;3.00;;;;;;;-145.48;100.00;64539.38;6059630;29;20431;-93
2022/11/06 06:14:28;;;;;;;7.10;2.90;;;;;;;-145.48;100.00;64539.38;6047497;29;20129;-93
2022/11/06 06:17:30;;;;;;;6.97;2.75;;;;;;;-145.48;100.00;64539.38;6051997;29;20060;-94
2022/11/06 06:20:33;;;;;;;5.00;2.85;;;;;;;-145.48;100.00;64539.38;6041559;29;20491;-93
2022/11/06 06:23:34;;;;;;;7.30;3.15;;;;;;;-145.48;100.00;64539.38;6044740;29;20044;-93
2022/11/06 06:26:36;;;;;;;4.22;2.85;;;;;;;-145.48;100.00;64539.38;6054716;29;20151;-94
2022/11/06 06:29:38;;;;;;;6.18;2.72;;;;;;;-145.48;100.00;64539.38;6053371;29;20056;-93
2022/11/06 06:32:40;;;;;;;5.70;2.60;;;;;;;-145.48;100.00;64539.38;6056394;29;20048;-93
2022/11/06 06:35:42;;;;;;;5.35;2.75;;;;;;;-145.48;100.00;64539.38;6043099;29;20465;-94
2022/11/06 06:38:43;;;;;;;6.15;3.33;;;;;;;-145.48;100.00;64539.38;6040588;29;21007;-94
2022/11/06 06:41:46;;;;;;;3.15;2.60;;;;;;;-145.48;100.00;64539.38;6037412;29;20037;-94
2022/11/06 06:44:48;;;;;;;6.15;3.05;;;;;;;-145.48;100.00;64539.38;6045871;29;20517;-93
2022/11/06 06:47:51;;;;;;;5.28;3.10;;;;;;;-145.48;100.00;64539.38;6056537;29;20044;-94
2022/11/06 06:51:00;;;;;;;6.03;3.38;;;;;;;-145.48;100.00;64539.38;6064727;29;20411;-93
2022/11/06 06:54:02;;;;;;;9.73;3.42;;;;;;;-145.48;100.00;64539.38;6051348;29;20224;-93
2022/11/06 06:57:07;;;;;;;6.70;3.30;;;;;;;-145.48;100.00;64539.38;6053000;29;20041;-94
2022/11/06 07:00:09;;;;;;;7.43;3.60;;;;;;;-145.48;100.00;64539.38;6039400;29;20041;-93
2022/11/06 07:03:11;;;;;;;8.82;3.25;;;;;;;-145.48;100.00;64539.38;6035067;29;20042;-94
2022/11/06 07:06:13;;;;;;;5.43;3.58;;;;;;;-145.48;100.00;64539.38;6037227;29;20042;-94
2022/11/06 07:09:15;;;;;;;6.50;3.63;;;;;;;-145.48;100.00;64539.38;6040243;29;20491;-94
2022/11/06 07:12:16;;;;;;;6.53;3.58;;;;;;;-145.48;100.00;64539.38;6049265;29;20174;-93
2022/11/06 07:15:18;;;;;;;5.35;3.55;;;;;;;-145.48;100.00;64539.38;6057747;29;20072;-94
2022/11/06 07:18:21;;;;;;;4.97;3.50;;;;;;;-145.48;100.00;64539.38;6039142;29;20416;-93
2022/11/06 07:21:23;;;;;;;7.03;3.17;;;;;;;-145.48;100.00;64539.38;6048059;29;20404;-94
2022/11/06 07:24:25;;;;;;;6.57;3.72;;;;;;;-145.48;100.00;64539.38;6050485;29;20041;-94
2022/11/06 07:27:28;;;;;;;6.32;3.83;;;;;;;-145.48;100.00;64539.38;6056298;29;20477;-94
2022/11/06 07:30:30;;;;;;;8.52;3.50;;;;;;;-145.48;100.00;64539.38;6045029;29;20052;-94
2022/11/06 07:33:33;;;;;;;7.03;3.63;;;;;;;-145.48;100.00;64539.38;6046160;29;20404;-94
2022/11/06 07:36:35;;;;;;;4.90;3.38;;;;;;;-145.48;100.00;64539.38;6049255;29;20155;-93
2022/11/06 07:39:37;;;;;;;7.28;3.92;;;;;;;-145.48;100.00;64539.38;6058087;29;20045;-93
2022/11/06 07:42:38;;;;;;;6.00;3.53;;;;;;;-145.48;100.00;64539.38;6040193;29;20045;-94
2022/11/06 07:45:48;;;;;;;6.03;3.67;;;;;;;-145.48;100.00;64539.38;6052724;29;20056;-94
2022/11/06 07:48:50;;;;;;;6.78;3.83;;;;;;;-145.48;100.00;64539.38;6041779;29;20419;-94
2022/11/06 07:51:53;;;;;;;7.93;3.60;;;;;;;-145.48;100.00;64539.38;6054928;29;20415;-94
2022/11/06 07:54:54;;;;;;;8.70;3.25;;;;;;;-145.48;100.00;64539.38;6046280;29;20041;-93
2022/11/06 07:57:58;;;;;;;7.35;3.92;;;;;;;-145.48;100.00;64539.38;6048538;29;20045;-94
2022/11/06 08:01:01;;;;;;;6.22;3.65;;;;;;;-145.48;100.00;64539.38;6047244;29;20585;-94
2022/11/06 08:04:03;;;;;;;6.82;3.38;;;;;;;-145.48;100.00;64539.38;6040806;29;20583;-93
2022/11/06 08:07:05;;;;;;;6.82;3.50;;;;;;;-145.48;100.00;64539.38;6037170;29;20416;-93
2022/11/06 08:10:07;;;;;;;6.57;3.75;;;;;;;-145.48;100.00;64539.38;6051468;29;20048;-93
2022/11/06 08:13:10;;;;;;;4.72;3.22;;;;;;;-145.48;100.00;64539.38;6042274;29;20128;-94
2022/11/06 08:16:13;;;;;;;7.28;3.60;;;;;;;-145.48;100.00;64539.38;6042481;29;20504;-94
2022/11/06 08:19:15;;;;;;;8.05;4.25;;;;;;;-145.48;100.00;64539.38;6046904;29;20045;-93
2022/11/06 08:22:18;;;;;;;6.35;3.72;;;;;;;-145.48;100.00;64539.38;6044884;29;20044;-93
2022/11/06 08:25:19;;;;;;;6.15;3.97;;;;;;;-145.48;100.00;64539.38;6061518;29;20052;-93
2022/11/06 08:28:22;;;;;;;6.97;3.60;;;;;;;-145.48;100.00;64539.38;6056125;29;20048;-93
2022/11/06 08:31:24;;;;;;;8.63;4.05;;;;;;;-145.48;100.00;64539.38;6053721;29;20056;-94
2022/11/06 08:34:25;;;;;;;6.32;3.80;;;;;;;-145.48;100.00;64539.38;6057853;29;20053;-93
2022/11/06 08:37:27;;;;;;;8.75;4.28;;;;;;;-145.48;100.00;64539.38;6054548;29;20055;-93
2022/11/06 08:40:29;;;;;;;6.72;3.72;;;;;;;-145.48;100.00;64539.38;6064868;29;20139;-93
2022/11/06 08:43:32;;;;;;;5.80;3.33;;;;;;;-145.48;100.00;64539.38;6052299;29;20470;-93
2022/11/06 08:46:34;;;;;;;6.22;3.90;;;;;;;-145.48;100.00;64539.38;6052728;29;20053;-94
2022/11/06 08:49:35;;;;;;;5.38;3.75;;;;;;;-145.48;100.00;64539.38;6055620;29;20043;-93
2022/11/06 08:52:37;;;;;;;7.72;3.70;;;;;;;-145.48;100.00;64539.38;6060118;29;20067;-94
2022/11/06 08:55:40;;;;;;;5.75;3.05;;;;;;;-145.48;100.00;64539.38;6052760;29;20107;-94
2022/11/06 08:58:42;;;;;;;5.13;3.40;;;;;;;-145.48;100.00;64539.38;6052221;29;20052;-93
2022/11/06 09:01:44;;;;;;;5.32;3.05;;;;;;;-145.48;100.00;64539.38;6048890;29;20077;-94
2022/11/06 09:04:46;;;;;;;7.40;3.40;;;;;;;-145.48;100.00;64539.38;6060464;29;20124;-93
2022/11/06 09:07:48;;;;;;;5.63;3.45;;;;;;;-145.48;100.00;64539.38;6057902;29;20040;-93
2022/11/06 09:10:50;;;;;;;5.90;3.40;;;;;;;-145.48;100.00;64539.38;6048241;29;20218;-94
2022/11/06 09:13:59;;;;;;;8.65;3.28;;;;;;;-145.48;100.00;64539.38;6058391;29;20104;-94
2022/11/06 09:17:00;;;;;;;6.25;3.50;;;;;;;-145.48;100.00;64539.38;6055614;29;20041;-93
2022/11/06 09:20:02;;;;;;;5.00;3.42;;;;;;;-145.48;100.00;64539.38;6047919;29;20053;-93
2022/11/06 09:23:06;;;;;;;3.75;2.92;;;;;;;-145.48;100.00;64539.38;6052547;29;20049;-94
2022/11/06 09:26:08;;;;;;;4.35;2.72;;;;;;;-145.48;100.00;64539.38;6039922;29;20403;-93
2022/11/06 09:29:10;;;;;;;5.20;3.30;;;;;;;-145.48;100.00;64539.38;6037249;29;20045;-93
2022/11/06 09:32:11;;;;;;;5.20;3.20;;;;;;;-145.48;100.00;64539.38;6038688;29;20047;-93
2022/11/06 09:35:14;;;;;;;6.35;3.25;;;;;;;-145.48;100.00;64539.38;6038836;29;20059;-93
2022/11/06 09:38:17;;;;;;;8.60;3.35;;;;;;;-145.48;100.00;64539.38;6057834;29;20498;-92
2022/11/06 09:41:44;;;;;;;7.43;3.60;;;;;;;-145.48;100.00;64539.38;6062822;29;20060;-94
2022/11/06 09:44:51;;;;;;;4.53;2.80;;;;;;;-145.48;100.00;64539.38;6035410;29;20049;-94
2022/11/06 09:47:58;;;;;;;5.80;2.83;;;;;;;-145.48;100.00;64539.38;6045908;29;20044;-93
2022/11/06 09:51:17;;;;;;;6.57;3.40;;;;;;;-145.48;100.00;64539.38;6036288;29;20037;-94
2022/11/06 09:54:23;;;;;;;6.68;3.10;;;;;;;-145.48;100.00;64539.38;6047951;29;20049;-94
2022/11/06 09:57:33;;;;;;;3.58;3.10;;;;;;;-145.48;100.00;64539.38;6035840;29;20412;-94
2022/11/06 10:00:35;;;;;;;4.43;2.93;;;;;;;-145.48;100.00;64539.38;6043903;29;20041;-94
2022/11/06 10:03:54;;;;;;;6.90;3.17;;;;;;;-145.48;100.00;64539.38;6054917;29;20061;-93
2022/11/06 10:06:56;;;;;;;5.75;2.72;;;;;;;-145.48;100.00;64539.38;6050747;29;20831;-93
2022/11/06 10:10:09;;;;;;;4.53;2.90;;;;;;;-145.48;100.00;64539.38;6058252;29;20089;-94
2022/11/06 10:13:33;;;;;;;4.38;2.90;;;;;;;-145.48;100.00;64539.38;6054582;29;20201;-94
2022/11/06 10:16:59;;;;;;;5.53;2.72;;;;;;;-145.48;100.00;64539.38;6054581;29;20041;-94
2022/11/06 10:20:05;;;;;;;6.57;2.78;;;;;;;-145.48;100.00;64539.38;6057555;29;20467;-94
2022/11/06 10:23:37;;;;;;;4.93;2.70;;;;;;;-145.48;100.00;64539.38;6033904;29;20057;-94
2022/11/06 10:26:44;;;;;;;5.60;2.70;;;;;;;-145.48;100.00;64539.38;6049490;29;20519;-94
2022/11/06 10:30:02;;;;;;;6.28;2.67;;;;;;;-145.48;100.00;64539.38;6040440;29;20049;-95
2022/11/06 10:33:32;;;;;;;4.53;2.88;;;;;;;-145.48;100.00;64539.38;6058584;29;20177;-94
2022/11/06 10:36:40;;;;;;;4.63;2.83;;;;;;;-145.48;100.00;64539.38;6052520;29;20055;-94
2022/11/06 10:39:48;;;;;;;4.18;2.47;;;;;;;-145.48;100.00;64539.38;6047663;29;20357;-95
2022/11/06 10:43:00;;;;;;;5.22;2.85;;;;;;;-145.48;100.00;64539.38;6052775;29;20097;-95
2022/11/06 10:46:34;;;;;;;7.07;2.90;;;;;;;-145.48;100.00;64539.38;6059172;29;20496;-94
2022/11/06 10:49:50;;;;;;;6.40;2.80;;;;;;;-145.48;100.00;64539.38;6055265;29;20198;-92
2022/11/06 10:53:07;;;;;;;4.05;2.55;;;;;;;-145.48;100.00;64539.38;6064699;29;20128;-94
2022/11/06 10:56:46;;;;;;;5.18;2.63;;;;;;;-145.48;100.00;64539.38;6062410;29;20508;-89
2022/11/06 10:59:49;;;;;;;2.85;2.35;;;;;;;-145.48;100.00;64539.38;6052433;29;20092;-94
2022/11/06 11:03:00;;;;;;;5.97;2.38;;;;;;;-145.48;100.00;64539.38;6042274;29;20078;-94
2022/11/06 11:06:03;;;;;;;6.63;2.67;;;;;;;-145.48;100.00;64539.38;6048249;29;20049;-93
2022/11/06 11:09:27;;;;;;;4.45;2.28;;;;;;;-145.48;100.00;64539.38;6063423;29;20049;-94
2022/11/06 11:12:31;;;;;;;5.18;2.13;;;;;;;-145.48;100.00;64539.38;6065899;29;20053;-93
2022/11/06 11:15:48;;;;;;;3.42;2.17;;;;;;;-145.48;100.00;64539.38;6056605;29;20418;-94
2022/11/06 11:18:50;;;;;;;3.85;2.17;;;;;;;-145.48;100.00;64539.38;6049721;29;20463;-94
2022/11/06 11:22:02;;;;;;;3.53;2.08;;;;;;;-145.48;100.00;64539.38;6054556;29;20044;-94
2022/11/06 11:25:23;;;;;;;3.97;2.30;;;;;;;-145.48;100.00;64539.38;6053745;29;20052;-94
2022/11/06 11:28:29;;;;;;;3.50;2.30;;;;;;;-145.48;100.00;64539.38;6053189;29;20062;-94
2022/11/06 11:31:33;;;;;;;2.85;2.00;;;;;;;-145.48;100.00;64539.38;6040429;29;20512;-94
2022/11/06 11:34:45;;;;;;;3.80;2.50;;;;;;;-145.48;100.00;64539.38;6052422;29;20369;-94
2022/11/06 11:38:15;;;;;;;3.45;2.00;;;;;;;-145.48;100.00;64539.38;6053074;29;20049;-94
2022/11/06 11:41:22;;;;;;;4.82;2.70;;;;;;;-145.48;100.00;64539.38;6057679;29;20460;-94
2022/11/06 11:44:24;;;;;;;4.35;2.13;;;;;;;-145.48;100.00;64539.38;6066592;29;20049;-94
2022/11/06 11:47:26;;;;;;;2.63;2.10;;;;;;;-145.48;100.00;64539.38;6046887;29;20056;-94
2022/11/06 11:50:31;;;;;;;3.30;2.35;;;;;;;-145.48;100.00;64539.38;6066964;29;20414;-94
2022/11/06 11:53:34;;;;;;;6.30;2.40;;;;;;;-145.48;100.00;64539.38;6058306;29;20045;-94
2022/11/06 11:56:53;;;;;;;4.55;1.90;;;;;;;-145.48;100.00;64539.38;6057194;29;20044;-94
2022/11/06 12:00:17;;;;;;;6.05;2.20;;;;;;;-145.48;100.00;64539.38;6042152;29;20045;-94
2022/11/06 12:03:20;;;;;;;3.58;2.20;;;;;;;-145.48;100.00;64539.38;6052471;29;20044;-94
2022/11/06 12:06:23;;;;;;;7.22;1.92;;;;;;;-145.48;100.00;64539.38;6052380;29;20060;-94
2022/11/06 12:09:27;;;;;;;6.35;2.40;;;;;;;-145.48;100.00;64539.38;6057342;29;20048;-94
2022/11/06 12:12:31;;;;;;;4.28;1.95;;;;;;;-145.48;100.00;64539.38;6054737;29;20037;-94
2022/11/06 12:16:02;;;;;;;3.25;2.30;;;;;;;-145.48;100.00;64539.38;6062244;29;20051;-94
2022/11/06 12:19:08;;;;;;;3.50;1.70;;;;;;;-145.48;100.00;64539.38;6022549;29;20131;-94
2022/11/06 12:22:16;;;;;;;6.03;1.98;;;;;;;-145.48;100.00;64539.38;6036125;29;20396;-94
2022/11/06 12:25:30;;;;;;;5.38;1.92;;;;;;;-145.48;100.00;64539.38;6051842;29;21100;-93
2022/11/06 12:28:36;;;;;;;4.38;2.10;;;;;;;-145.48;100.00;64539.38;6046642;29;20048;-93
2022/11/06 12:31:54;;;;;;;3.72;1.80;;;;;;;-145.48;100.00;64539.38;6049024;29;20571;-94
2022/11/06 12:35:14;;;;;;;2.72;1.67;;;;;;;-145.48;100.00;64539.38;6043538;29;20056;-94
2022/11/06 12:38:19;;;;;;;2.72;1.73;;;;;;;-145.48;100.00;64539.38;6047566;29;20052;-94
2022/11/06 12:41:29;;;;;;;3.65;1.65;;;;;;;-145.48;100.00;64539.38;6045724;29;20049;-93
2022/11/06 12:44:31;;;;;;;5.77;2.10;;;;;;;-145.48;100.00;64539.38;6056932;29;20228;-94
2022/11/06 12:48:01;;;;;;;3.00;1.63;;;;;;;-145.48;100.00;64539.38;6046623;29;20059;-93
2022/11/06 12:51:21;;;;;;;5.32;2.22;;;;;;;-145.48;100.00;64539.38;6045624;29;20060;-94
2022/11/06 12:54:44;;;;;;;;;;;;;;;-145.48;100.00;64539.38;6048653;29;20085;-94
2022/11/06 12:58:00;;;;;;;3.22;1.75;;;;;;;-145.48;100.00;64539.38;6042490;29;20006;-93
2022/11/06 13:01:28;;;;;;;5.22;2.20;;;;;;;-145.48;100.00;64539.38;6025383;29;20440;-94
2022/11/06 13:04:57;;;;;;;3.97;2.10;;;;;;;-145.48;100.00;64539.38;6017685;29;20049;-93
2022/11/06 13:08:30;;;;;;;5.93;1.98;;;;;;;-145.48;100.00;64539.38;6014992;29;20058;-92
2022/11/06 13:11:50;;;;;;;4.30;1.90;;;;;;;-145.48;100.00;64539.38;6027326;29;21220;-94
2022/11/06 13:15:33;;;;;;;3.03;1.77;;;;;;;-145.48;100.00;64539.38;6022651;29;20654;-94
2022/11/06 13:19:13;;;;;;;3.78;2.08;;;;;;;-145.48;100.00;64539.38;5996831;29;20050;-93
2022/11/06 13:23:05;;;;;;;3.58;1.80;;;;;;;-145.48;100.00;64539.38;5928256;29;20129;-94
2022/11/06 13:26:42;;;;;;;2.67;1.67;;;;;;;-145.48;100.00;64539.38;5878756;30;20440;-94
2022/11/06 13:29:44;;;;;;;4.68;2.08;;;;;;;-145.48;100.00;64539.38;5845926;30;20581;-94
2022/11/06 13:33:13;;;;;;;4.35;1.95;;;;;;;-145.48;100.00;64539.38;5830946;30;20059;-93
2022/11/06 13:36:16;;;;;;;119.65;22.55;;;;;;;-145.48;100.00;64539.38;5851786;30;20592;-93
2022/11/06 13:39:28;;;;;;;69.35;15.13;;;;;;;-145.48;100.00;64539.38;5823204;30;20500;-94
2022/11/06 13:42:37;;;;;;;12.95;4.55;;;;;;;-145.48;100.00;64539.38;5812396;30;20136;-94
2022/11/06 13:46:02;;;;;;;14.80;3.63;;;;;;;-145.48;100.00;64539.38;5812071;30;20064;-96
2022/11/06 13:49:33;;;;;;;4.00;2.00;;;;;;;-145.48;100.00;64539.38;5828658;30;20067;-95
2022/11/06 13:52:35;;;;;;;;;;;;;;;-145.48;100.00;64539.38;5823294;30;20451;-95
2022/11/06 13:56:05;;;;;;;4.90;1.90;;;;;;;-145.48;100.00;64539.38;5829672;30;20005;-96
2022/11/06 13:59:44;;;;;;;3.63;1.80;;;;;;;-145.48;100.00;64539.38;5948412;29;20062;-96
2022/11/06 14:03:13;;;;;;;4.00;1.90;;;;;;;-145.48;100.00;64539.38;5954007;29;20482;-96
2022/11/06 14:06:20;;;;;;;4.55;1.63;;;;;;;-145.48;100.00;64539.38;6036657;29;20053;-96
2022/11/06 14:09:25;;;;;;;4.20;2.00;;;;;;;-145.48;100.00;64539.38;6029223;29;20057;-95
2022/11/06 14:12:28;;;;;;;3.00;1.85;;;;;;;-145.48;100.00;64539.38;6040296;29;20053;-96
2022/11/06 14:15:36;;;;;;;4.82;2.20;;;;;;;-145.48;100.00;64539.38;6047168;29;20093;-96
2022/11/06 14:18:38;;;;;;;6.43;2.15;;;;;;;-145.48;100.00;64539.38;6041679;29;20052;-96
2022/11/06 14:21:44;;;;;;;9.73;5.50;;;;;;;-145.48;100.00;64539.38;6052690;29;20044;-96
2022/11/06 14:24:46;;;;;;;6.00;3.80;;;;;;;-145.48;100.00;64539.38;6053291;29;20120;-96
2022/11/06 14:27:48;;;;;;;6.78;3.65;;;;;;;-145.48;100.00;64539.38;6052501;29;20343;-96
2022/11/06 14:30:50;;;;;;;7.40;3.40;;;;;;;-145.48;100.00;64539.38;6047942;29;20037;-96
2022/11/06 14:34:29;;;;;;;8.80;6.15;;;;;;;-145.48;100.00;64539.38;6047862;29;20434;-96